Mason, OH

4:31 PM EDT on June 03, 2015 (GMT -0400)
Sinclair Courseview Campus | | Change Station
CLOSE
Current Station
Personal Weather Station
Location: Mason, OH
Elevation: 783 ft
Nearby Weather Stations

Elev 783 ft 39.35 °N, 84.27 °W | Updated 10 seconds ago

Overcast
Overcast
73.2 °F
Feels Like 76 °F
N
0.0
Wind Variable Wind from ENE
Gusts 0.0 mph

Today
High -- | Low -- °F
--% Chance of Precip.
Yesterday
High -- | Low -- °F
Precip. -- in
6:11 AM 8:59 PM
Full, 98% visible
Pressure 30.04 in
Visibility 9.0 miles
Clouds Mostly Cloudy 3900 ft
Heat Index 76 °F
Dew Point 60 °F
Humidity 63%
Rainfall 0.00 in
Snow Depth Not available.
UV 3.6 out of 12
Pollen 8.10 out of 12
Air Quality Not available.
Flu Activity Sporadic
METAR KHAO 031953Z AUTO 00000KT 9SM BKN039 23/15 A3005 RMK AO2 SLP173 T02280150

More Conditions Fewer Conditions

Pressure 30.04 in
Visibility 9.0 miles
Clouds Mostly Cloudy 3900 ft
Heat Index 76 °F
Dew Point 60 °F
Humidity 63%
Rainfall 0.00 in
Snow Depth Not available.
UV 3.6 out of 12
Pollen 8.10 out of 12
Air Quality Not available.
Flu Activity Sporadic
METAR KHAO 031953Z AUTO 00000KT 9SM BKN039 23/15 A3005 RMK AO2 SLP173 T02280150

More Conditions Fewer Conditions

10-Day Weather Forecast

×

Almanac

Astronomy

Jun. 03, 2015 Rise Set
Actual Time
Civil Twilight
Nautical Twilight
Astronomical Twilight
Moon
Length of Visible Light
Length of Day
Tomorrow will be .
, % of the Moon is Illuminated

Today's Extremes

State Highs State Lows

Community

WunderPhotos

Upload Photos

1,826,277 photos uploaded!

WunderBlogs® & News

Nearby

Air Quality

  Air Quality AQ Index Pollutant
Not available.

Snow Depth

Station Depth Elevation

Earthquake Activity

City Distance Mag. Time & Date
Minimum magnitude displayed is 2.5.

Coastal Water Temperatures

Place Temperature

Stations

Nearby Weather Stations

Station Location Temp. Windchill Dew Point Humidity Wind Precip. Elev Updated Type